Time;durP1;ratioP1;P1;durP2;ratioP2;P2;SDS_P1;SDS_P2;PMS_P1;PMS_P2;Temp;Humidity;BMP_temperature;BMP_pressure;BME280_temperature;BME280_humidity;BME280_pressure;Samples;Min_cycle;Max_cycle;Signal;HPM_P1;HPM_P2
2021/11/11 00:00:12;;;;;;;13.25;4.85;;;;;;;11.25;100.00;101620.41;4988360;28;20045;-66
2021/11/11 00:02:39;;;;;;;14.27;4.63;;;;;;;11.26;100.00;101628.19;4990699;28;20038;-66
2021/11/11 00:05:07;;;;;;;11.88;4.63;;;;;;;11.28;100.00;101628.63;4990682;28;20034;-66
2021/11/11 00:07:33;;;;;;;10.15;3.78;;;;;;;11.29;100.00;101629.41;4989901;28;20673;-66
2021/11/11 00:10:01;;;;;;;14.65;4.82;;;;;;;11.27;100.00;101626.25;4988465;28;20030;-65
2021/11/11 00:12:31;;;;;;;9.35;4.70;;;;;;;11.30;100.00;101625.59;4973737;28;20026;-65
2021/11/11 00:15:02;;;;;;;13.70;4.72;;;;;;;11.27;100.00;101631.66;4990685;28;20793;-65
2021/11/11 00:17:28;;;;;;;15.85;4.25;;;;;;;11.28;100.00;101627.84;4972878;28;20500;-65
2021/11/11 00:19:56;;;;;;;13.27;5.13;;;;;;;11.25;100.00;101623.91;4998202;28;20042;-65
2021/11/11 00:22:23;;;;;;;12.43;4.32;;;;;;;11.26;100.00;101613.91;4990207;28;20038;-65
2021/11/11 00:24:48;;;;;;;13.32;6.18;;;;;;;11.24;100.00;101614.25;4989928;28;20049;-65
2021/11/11 00:27:14;;;;;;;13.52;3.97;;;;;;;11.23;100.00;101611.88;4994752;28;20034;-65
2021/11/11 00:29:40;;;;;;;10.07;3.85;;;;;;;11.15;100.00;101608.16;4990100;28;20057;-65
2021/11/11 00:32:06;;;;;;;18.42;5.35;;;;;;;11.12;100.00;101602.66;4989881;28;20485;-65
2021/11/11 00:34:32;;;;;;;14.63;4.50;;;;;;;11.17;100.00;101605.16;4986976;28;20030;-65
2021/11/11 00:36:59;;;;;;;13.90;4.25;;;;;;;11.21;100.00;101606.03;4989885;28;20134;-65
2021/11/11 00:39:25;;;;;;;10.52;4.18;;;;;;;11.22;100.00;101596.81;4989147;28;20130;-65
2021/11/11 00:41:51;;;;;;;10.93;4.25;;;;;;;11.14;100.00;101585.03;4988868;28;20027;-65
2021/11/11 00:44:17;;;;;;;12.23;4.95;;;;;;;11.07;100.00;101594.78;4993372;28;20530;-65
2021/11/11 00:46:42;;;;;;;18.15;5.00;;;;;;;11.05;100.00;101597.03;4973804;28;20093;-65
2021/11/11 00:49:08;;;;;;;16.38;5.07;;;;;;;10.92;100.00;101598.13;4988394;28;20431;-65
2021/11/11 00:51:38;;;;;;;14.45;5.22;;;;;;;11.03;100.00;101596.56;4998147;28;20121;-65
2021/11/11 00:54:05;;;;;;;14.95;4.90;;;;;;;10.98;100.00;101599.47;4992361;28;20138;-65
2021/11/11 00:56:32;;;;;;;11.75;4.60;;;;;;;10.96;100.00;101599.00;4992040;28;20403;-65
2021/11/11 00:58:59;;;;;;;15.30;4.90;;;;;;;11.04;100.00;101600.84;4976163;28;20771;-65
2021/11/11 01:01:28;;;;;;;12.63;4.63;;;;;;;10.96;100.00;101612.47;5003046;28;20067;-65
2021/11/11 01:03:58;;;;;;;16.27;5.35;;;;;;;11.06;100.00;101609.38;4978913;28;20445;-65
2021/11/11 01:06:29;;;;;;;9.63;4.97;;;;;;;11.08;100.00;101609.81;4976689;28;20030;-65
2021/11/11 01:08:56;;;;;;;17.98;5.57;;;;;;;11.02;100.00;101603.88;4989769;28;20176;-65
2021/11/11 01:11:21;;;;;;;14.13;4.60;;;;;;;11.05;100.00;101602.41;5001005;28;20041;-65
2021/11/11 01:13:47;;;;;;;13.18;4.90;;;;;;;11.02;100.00;101608.47;4993449;28;20026;-65
2021/11/11 01:16:13;;;;;;;12.40;4.57;;;;;;;11.04;100.00;101607.00;4994027;28;20455;-65
2021/11/11 01:18:39;;;;;;;18.05;5.80;;;;;;;11.00;100.00;101605.31;4973203;28;20038;-65
2021/11/11 01:21:05;;;;;;;11.73;4.72;;;;;;;11.00;100.00;101608.00;5004307;28;20072;-65
2021/11/11 01:23:32;;;;;;;13.95;5.38;;;;;;;10.98;100.00;101602.97;4994149;28;20073;-65
2021/11/11 01:25:57;;;;;;;18.75;5.18;;;;;;;11.01;100.00;101610.41;4991480;28;20041;-65
2021/11/11 01:28:27;;;;;;;15.27;4.78;;;;;;;10.98;100.00;101615.63;4990096;28;20092;-65
2021/11/11 01:30:53;;;;;;;17.85;5.05;;;;;;;11.00;100.00;101624.97;4974023;28;20030;-65
2021/11/11 01:33:26;;;;;;;22.08;5.53;;;;;;;11.00;100.00;101619.59;4992359;28;20081;-65
2021/11/11 01:35:53;;;;;;;23.58;6.32;;;;;;;11.06;100.00;101620.16;4972733;28;20053;-65
2021/11/11 01:38:24;;;;;;;12.05;4.45;;;;;;;11.04;100.00;101617.81;4974478;28;20400;-65
2021/11/11 01:40:53;;;;;;;19.70;5.20;;;;;;;11.02;100.00;101624.63;4970134;28;20080;-65
2021/11/11 01:43:21;;;;;;;24.13;5.55;;;;;;;11.03;100.00;101613.53;4987805;28;20034;-65
2021/11/11 01:45:47;;;;;;;15.52;5.63;;;;;;;11.02;100.00;101608.47;4968247;28;20093;-66
2021/11/11 01:48:19;;;;;;;15.50;5.60;;;;;;;11.00;100.00;101611.50;4976530;28;20022;-65
2021/11/11 01:50:46;;;;;;;24.65;5.13;;;;;;;10.95;100.00;101610.94;4974824;28;20034;-65
2021/11/11 01:53:13;;;;;;;13.48;4.60;;;;;;;10.92;100.00;101606.97;4990996;28;20031;-65
2021/11/11 01:55:42;;;;;;;16.15;5.05;;;;;;;10.94;100.00;101603.97;4989779;28;20214;-66
2021/11/11 01:58:08;;;;;;;10.55;4.63;;;;;;;10.99;100.00;101603.75;5008019;28;20399;-65
2021/11/11 02:00:52;;;;;;;15.98;5.93;;;;;;;11.04;100.00;101604.31;4992885;28;20030;-65
2021/11/11 02:03:29;;;;;;;14.02;5.13;;;;;;;10.98;100.00;101594.06;4991957;28;20026;-65
2021/11/11 02:06:02;;;;;;;23.23;6.97;;;;;;;11.08;100.00;101601.75;4970162;28;20099;-65
2021/11/11 02:08:53;;;;;;;19.88;5.28;;;;;;;11.03;100.00;101600.06;4980771;28;20073;-65
2021/11/11 02:11:23;;;;;;;20.27;6.30;;;;;;;11.05;100.00;101605.91;4995306;28;20042;-65
2021/11/11 02:13:52;;;;;;;17.90;5.40;;;;;;;11.05;100.00;101600.53;4991561;28;20038;-65
2021/11/11 02:16:20;;;;;;;14.73;5.55;;;;;;;11.03;100.00;101605.47;4972148;28;20504;-65
2021/11/11 02:18:46;;;;;;;19.25;6.93;;;;;;;11.06;100.00;101602.09;4972627;28;20065;-65
2021/11/11 02:21:16;;;;;;;18.02;5.85;;;;;;;11.12;100.00;101599.94;4987560;28;20302;-65
2021/11/11 02:23:57;;;;;;;17.98;5.10;;;;;;;11.13;100.00;101601.53;4989972;28;20030;-66
2021/11/11 02:26:58;;;;;;;17.73;5.75;;;;;;;11.12;100.00;101603.44;4975827;28;20042;-65
2021/11/11 02:29:28;;;;;;;28.10;6.80;;;;;;;11.15;100.00;101602.00;4991295;28;20030;-66
2021/11/11 02:31:54;;;;;;;25.42;5.88;;;;;;;11.07;100.00;101603.63;4979491;28;20061;-66
2021/11/11 02:34:23;;;;;;;29.67;7.18;;;;;;;11.15;100.00;101596.59;4973028;28;20121;-65
2021/11/11 02:36:59;;;;;;;20.23;6.05;;;;;;;11.14;100.00;101600.41;4980722;28;20123;-66
2021/11/11 02:39:39;;;;;;;23.35;8.13;;;;;;;11.13;100.00;101590.75;4991163;28;20034;-67
2021/11/11 02:42:05;;;;;;;23.80;6.95;;;;;;;11.07;100.00;101600.19;4979755;28;20072;-66
2021/11/11 02:44:32;;;;;;;24.05;6.15;;;;;;;11.10;100.00;101594.09;4998963;28;20034;-66
2021/11/11 02:47:00;;;;;;;22.65;6.63;;;;;;;11.08;100.00;101597.16;4988481;28;20045;-66
2021/11/11 02:49:34;;;;;;;14.02;5.38;;;;;;;11.05;100.00;101591.63;4978217;28;20558;-66
2021/11/11 02:52:01;;;;;;;20.52;6.47;;;;;;;11.11;100.00;101587.59;4974297;28;20113;-66
2021/11/11 02:54:34;;;;;;;22.63;7.20;;;;;;;11.08;100.00;101582.88;4992573;28;20056;-66
2021/11/11 02:56:59;;;;;;;27.02;6.82;;;;;;;11.12;100.00;101586.47;4970675;28;20409;-66
2021/11/11 02:59:25;;;;;;;19.95;6.68;;;;;;;11.11;100.00;101590.31;4996164;28;20038;-65
2021/11/11 03:01:51;;;;;;;18.45;6.90;;;;;;;11.10;100.00;101594.09;4973884;28;20593;-66
2021/11/11 03:04:16;;;;;;;19.48;6.00;;;;;;;11.05;100.00;101591.63;4974136;28;20062;-65
2021/11/11 03:06:42;;;;;;;22.15;6.47;;;;;;;11.08;100.00;101582.88;4990039;28;20065;-65
2021/11/11 03:09:08;;;;;;;17.73;6.53;;;;;;;11.09;100.00;101587.16;4993738;28;20104;-66
2021/11/11 03:11:37;;;;;;;17.58;5.85;;;;;;;11.09;100.00;101581.75;4995560;28;20069;-65
2021/11/11 03:14:07;;;;;;;16.58;5.93;;;;;;;11.06;100.00;101587.81;4990621;28;20451;-66
2021/11/11 03:16:33;;;;;;;20.17;5.78;;;;;;;11.00;100.00;101584.53;4971611;28;20041;-66
2021/11/11 03:18:59;;;;;;;15.48;6.32;;;;;;;11.06;100.00;101582.41;4991483;28;20476;-64
2021/11/11 03:21:24;;;;;;;20.40;6.97;;;;;;;11.02;100.00;101579.59;4992001;28;20492;-65
2021/11/11 03:23:53;;;;;;;21.08;6.80;;;;;;;11.05;100.00;101588.94;4990326;28;20113;-65
2021/11/11 03:26:23;;;;;;;17.80;6.03;;;;;;;11.04;100.00;101574.69;4971715;28;20117;-65
2021/11/11 03:28:50;;;;;;;18.75;7.28;;;;;;;11.00;100.00;101576.47;4972892;28;20109;-65
2021/11/11 03:31:24;;;;;;;20.30;6.57;;;;;;;11.02;100.00;101571.53;4989723;28;20034;-65
2021/11/11 03:33:54;;;;;;;22.88;7.28;;;;;;;11.03;100.00;101572.31;4989932;28;20034;-66
2021/11/11 03:36:20;;;;;;;20.83;6.38;;;;;;;11.01;100.00;101582.66;4992715;28;20033;-65
2021/11/11 03:38:46;;;;;;;19.10;6.47;;;;;;;11.05;100.00;101575.47;4991598;28;20026;-66
2021/11/11 03:41:12;;;;;;;21.08;6.93;;;;;;;11.00;100.00;101573.75;4986258;28;20061;-65
2021/11/11 03:43:38;;;;;;;16.95;5.70;;;;;;;10.96;100.00;101575.56;4994900;28;20033;-66
2021/11/11 03:46:11;;;;;;;25.35;6.90;;;;;;;11.00;100.00;101575.66;4990257;28;20038;-66
2021/11/11 03:48:37;;;;;;;19.23;6.65;;;;;;;11.04;100.00;101576.56;4978478;28;20054;-65
2021/11/11 03:51:08;;;;;;;18.40;6.10;;;;;;;11.03;100.00;101577.72;4979795;28;20396;-66
2021/11/11 03:53:34;;;;;;;25.98;6.25;;;;;;;11.01;100.00;101572.66;4973211;28;20031;-66
2021/11/11 03:56:02;;;;;;;20.08;7.30;;;;;;;11.04;100.00;101566.59;4970709;28;20113;-66
2021/11/11 03:58:28;;;;;;;20.13;6.28;;;;;;;11.02;100.00;101576.91;4986066;28;20408;-65
2021/11/11 04:00:53;;;;;;;24.52;6.30;;;;;;;11.04;100.00;101573.88;4996406;28;20038;-66
2021/11/11 04:03:20;;;;;;;23.50;6.05;;;;;;;11.00;100.00;101578.34;4973791;28;20041;-65
2021/11/11 04:05:45;;;;;;;22.65;6.10;;;;;;;11.01;100.00;101580.75;4973740;28;20485;-65
2021/11/11 04:08:17;;;;;;;22.02;6.40;;;;;;;11.01;100.00;101586.13;4965886;28;20041;-65
2021/11/11 04:10:46;;;;;;;22.73;6.32;;;;;;;11.04;100.00;101581.97;4986278;28;20026;-66
2021/11/11 04:13:15;;;;;;;20.35;6.72;;;;;;;10.96;100.00;101580.16;4990091;28;20056;-66
2021/11/11 04:15:41;;;;;;;20.35;6.97;;;;;;;10.98;100.00;101575.22;4991080;28;20493;-66
2021/11/11 04:18:07;;;;;;;19.83;6.35;;;;;;;10.91;100.00;101573.09;4968286;28;20054;-66
2021/11/11 04:20:37;;;;;;;24.55;7.35;;;;;;;10.99;100.00;101566.03;4983070;28;20018;-65
2021/11/11 04:23:03;;;;;;;21.85;5.82;;;;;;;10.97;100.00;101573.66;5000615;28;20026;-66
2021/11/11 04:25:36;;;;;;;17.77;5.22;;;;;;;10.97;100.00;101568.25;4990600;28;20037;-66
2021/11/11 04:28:08;;;;;;;26.98;7.43;;;;;;;10.96;100.00;101558.59;4988948;28;20038;-66
2021/11/11 04:30:35;;;;;;;16.38;5.38;;;;;;;10.95;100.00;101568.59;4983530;28;20030;-65
2021/11/11 04:33:04;;;;;;;22.83;6.35;;;;;;;11.01;100.00;101563.78;4987917;28;20031;-66
2021/11/11 04:35:31;;;;;;;23.40;7.22;;;;;;;11.01;100.00;101563.78;4983425;28;20033;-66
2021/11/11 04:38:02;;;;;;;20.92;5.88;;;;;;;10.96;100.00;101566.66;4977614;28;20067;-65
2021/11/11 05:01:47;;;;;;;22.88;6.78;;;;;;;10.92;100.00;101565.78;4992405;28;20026;-64
2021/11/11 05:04:12;;;;;;;19.17;5.43;;;;;;;10.86;100.00;101563.28;4992396;28;20495;-64
2021/11/11 05:06:38;;;;;;;21.30;5.95;;;;;;;10.96;100.00;101566.66;4980030;28;20049;-64
2021/11/11 05:09:04;;;;;;;21.10;6.47;;;;;;;10.91;100.00;101573.09;4991988;28;20124;-64
2021/11/11 05:11:32;;;;;;;18.63;7.00;;;;;;;10.94;100.00;101579.72;5005068;28;20042;-64
2021/11/11 05:13:59;;;;;;;19.13;6.05;;;;;;;10.94;100.00;101568.94;4974585;28;20053;-65
2021/11/11 05:16:25;;;;;;;25.27;7.45;;;;;;;10.94;100.00;101566.25;4987278;28;20026;-64
2021/11/11 05:18:50;;;;;;;22.73;6.15;;;;;;;10.94;100.00;101567.00;4980196;28;20636;-63
2021/11/11 05:21:17;;;;;;;21.73;5.65;;;;;;;10.93;100.00;101570.06;5004481;28;20031;-64
2021/11/11 05:23:43;;;;;;;29.48;6.82;;;;;;;11.01;100.00;101569.16;4990134;28;20514;-64
2021/11/11 05:26:12;;;;;;;19.10;6.10;;;;;;;10.98;100.00;101576.00;4973098;28;20042;-65
2021/11/11 05:28:39;;;;;;;25.67;6.70;;;;;;;11.02;100.00;101568.03;4980766;28;20053;-64
2021/11/11 05:31:11;;;;;;;25.95;6.20;;;;;;;10.98;100.00;101577.91;4977201;28;20038;-64
2021/11/11 05:33:37;;;;;;;25.15;6.93;;;;;;;10.98;100.00;101564.44;4992303;28;20408;-64
2021/11/11 05:36:03;;;;;;;19.92;5.80;;;;;;;11.01;100.00;101572.66;4974850;28;20033;-64
2021/11/11 05:38:29;;;;;;;18.45;6.05;;;;;;;10.95;100.00;101573.19;4989817;28;20030;-64
2021/11/11 05:40:55;;;;;;;19.40;6.18;;;;;;;10.99;100.00;101560.63;4999889;28;20108;-64
2021/11/11 05:43:21;;;;;;;16.48;6.43;;;;;;;10.96;100.00;101561.28;4991066;28;20063;-65
2021/11/11 05:45:47;;;;;;;19.65;6.07;;;;;;;10.98;100.00;101564.44;4991361;28;20069;-65
2021/11/11 05:48:13;;;;;;;21.33;5.53;;;;;;;10.98;100.00;101564.44;4972543;28;20537;-64
2021/11/11 05:50:40;;;;;;;23.98;5.65;;;;;;;11.02;100.00;101565.34;4990500;28;20495;-65
2021/11/11 05:53:06;;;;;;;26.50;8.00;;;;;;;11.10;100.00;101567.94;4975335;28;20489;-64
2021/11/11 05:55:33;;;;;;;22.92;6.60;;;;;;;11.03;100.00;101566.94;4976156;28;20062;-64
2021/11/11 05:58:04;;;;;;;16.95;5.28;;;;;;;11.01;100.00;101571.88;4973417;28;20516;-64
2021/11/11 06:00:31;;;;;;;24.90;6.28;;;;;;;11.07;100.00;101573.22;4959090;28;20556;-64
2021/11/11 06:03:06;;;;;;;15.90;5.05;;;;;;;11.04;100.00;101568.47;4984019;28;20030;-64
2021/11/11 06:05:32;;;;;;;21.15;5.88;;;;;;;10.99;100.00;101566.03;4974758;28;20084;-64
2021/11/11 06:07:59;;;;;;;18.23;5.50;;;;;;;11.03;100.00;101566.94;4974645;28;20049;-65
2021/11/11 06:10:25;;;;;;;18.63;4.78;;;;;;;11.01;100.00;101574.56;4998618;28;20030;-64
2021/11/11 06:12:51;;;;;;;25.65;6.18;;;;;;;11.08;100.00;101577.47;4992236;28;20050;-65
2021/11/11 06:15:16;;;;;;;20.58;5.18;;;;;;;11.00;100.00;101572.97;4974204;28;20041;-65
2021/11/11 06:17:44;;;;;;;23.08;5.53;;;;;;;10.99;100.00;101572.22;4997714;28;20038;-64
2021/11/11 06:20:20;;;;;;;15.98;5.30;;;;;;;10.99;100.00;101574.09;4993179;28;20038;-64
2021/11/11 06:22:49;;;;;;;14.75;4.68;;;;;;;10.99;100.00;101574.91;4977605;28;20077;-64
2021/11/11 06:25:19;;;;;;;19.67;5.95;;;;;;;11.06;100.00;101574.34;4979915;28;20564;-63
2021/11/11 06:27:49;;;;;;;25.58;7.20;;;;;;;11.03;100.00;101591.19;4975879;28;20097;-65
2021/11/11 06:30:14;;;;;;;21.50;5.80;;;;;;;11.05;100.00;101583.56;4973651;28;20408;-63
2021/11/11 06:32:42;;;;;;;25.98;6.75;;;;;;;11.10;100.00;101586.81;4974347;28;20385;-64
2021/11/11 06:35:09;;;;;;;24.38;6.28;;;;;;;11.11;100.00;101587.59;5006316;28;20041;-65
2021/11/11 06:37:38;;;;;;;19.65;5.32;;;;;;;11.08;100.00;101591.75;4988557;28;20775;-64
2021/11/11 06:40:05;;;;;;;18.70;5.80;;;;;;;11.07;100.00;101597.47;4973406;28;20188;-65
2021/11/11 06:42:33;;;;;;;26.63;6.57;;;;;;;11.12;100.00;101598.06;4991797;28;20053;-64
2021/11/11 06:44:59;;;;;;;16.65;5.70;;;;;;;11.12;100.00;101599.94;4990471;28;20049;-64
2021/11/11 06:47:25;;;;;;;20.50;5.75;;;;;;;11.08;100.00;101601.75;4995779;28;20495;-64
2021/11/11 06:49:53;;;;;;;20.92;6.65;;;;;;;11.16;100.00;101598.97;4990702;28;20307;-65
2021/11/11 06:52:19;;;;;;;22.13;5.53;;;;;;;11.03;100.00;101594.69;5003615;28;20055;-63
2021/11/11 06:54:44;;;;;;;18.85;5.00;;;;;;;11.11;100.00;101590.31;4995880;28;20033;-64
2021/11/11 06:57:13;;;;;;;22.05;5.93;;;;;;;11.02;100.00;101595.78;4992102;28;20049;-64
2021/11/11 06:59:43;;;;;;;21.92;6.88;;;;;;;10.95;100.00;101586.66;4977384;28;20116;-64
2021/11/11 07:02:08;;;;;;;24.02;7.70;;;;;;;11.03;100.00;101597.38;4981842;28;20146;-65
2021/11/11 07:04:35;;;;;;;21.73;5.70;;;;;;;11.00;100.00;101594.53;4970990;28;20835;-64
2021/11/11 07:07:04;;;;;;;18.40;5.70;;;;;;;11.03;100.00;101599.28;5005886;28;20044;-64
2021/11/11 07:09:30;;;;;;;24.92;6.05;;;;;;;11.11;100.00;101607.25;4993945;28;20042;-63
2021/11/11 07:11:56;;;;;;;19.38;6.20;;;;;;;11.11;100.00;101595.69;4990755;28;20065;-65
2021/11/11 07:14:22;;;;;;;16.95;5.07;;;;;;;11.09;100.00;101601.41;4969202;28;20030;-64
2021/11/11 07:16:47;;;;;;;19.23;6.20;;;;;;;11.12;100.00;101608.03;4973081;28;20092;-64
2021/11/11 07:19:13;;;;;;;21.88;6.18;;;;;;;11.14;100.00;101611.97;4985514;28;20050;-64
2021/11/11 07:21:39;;;;;;;14.43;5.60;;;;;;;11.20;100.00;101602.56;4987054;28;20080;-64
2021/11/11 07:24:05;;;;;;;19.88;6.35;;;;;;;11.19;100.00;101603.66;4985968;28;20030;-64
2021/11/11 07:26:30;;;;;;;19.77;5.40;;;;;;;11.17;100.00;101608.59;4991475;28;20034;-64
2021/11/11 07:28:59;;;;;;;24.92;6.68;;;;;;;11.12;100.00;101611.53;4990689;28;20041;-65
2021/11/11 07:31:25;;;;;;;19.48;5.03;;;;;;;11.16;100.00;101612.44;4996266;28;20031;-64
2021/11/11 07:33:53;;;;;;;16.73;5.60;;;;;;;11.19;100.00;101608.28;4986944;28;20045;-65
2021/11/11 07:36:19;;;;;;;18.50;5.22;;;;;;;11.19;100.00;101613.69;4973541;28;20031;-64
2021/11/11 07:38:45;;;;;;;25.67;5.53;;;;;;;11.23;100.00;101617.25;4978936;28;20580;-63
2021/11/11 07:41:11;;;;;;;17.65;5.82;;;;;;;11.16;100.00;101604.34;4974170;28;20030;-64
2021/11/11 07:43:37;;;;;;;25.40;6.18;;;;;;;11.24;100.00;101606.16;4972777;28;20042;-65
2021/11/11 07:46:06;;;;;;;24.25;6.95;;;;;;;11.23;100.00;101609.16;4978045;28;20022;-64
2021/11/11 07:48:32;;;;;;;26.10;5.97;;;;;;;11.14;100.00;101611.97;4970345;28;20030;-64
2021/11/11 07:51:00;;;;;;;26.42;6.80;;;;;;;11.23;100.00;101611.88;4978187;28;20034;-64
2021/11/11 07:53:29;;;;;;;14.02;4.78;;;;;;;11.21;100.00;101616.81;4980674;28;20113;-64
2021/11/11 07:55:55;;;;;;;12.88;5.38;;;;;;;11.26;100.00;101619.31;4973801;28;20084;-65
2021/11/11 07:58:22;;;;;;;24.17;6.30;;;;;;;11.29;100.00;101618.63;4976406;28;20066;-64
2021/11/11 08:00:48;;;;;;;19.58;6.00;;;;;;;11.29;100.00;101619.41;4976661;28;20119;-65
2021/11/11 08:03:13;;;;;;;14.82;5.40;;;;;;;11.30;100.00;101617.50;4970625;28;20464;-65
2021/11/11 08:05:42;;;;;;;16.77;5.82;;;;;;;11.27;100.00;101620.88;4974200;28;20050;-63
2021/11/11 08:08:09;;;;;;;20.85;5.72;;;;;;;11.28;100.00;101620.56;4978652;28;20049;-64
2021/11/11 08:10:35;;;;;;;14.27;4.68;;;;;;;11.23;100.00;101619.97;4986866;28;20023;-65
2021/11/11 08:13:01;;;;;;;18.70;5.53;;;;;;;11.29;100.00;101624.00;4989534;28;20049;-65
2021/11/11 08:15:26;;;;;;;19.83;6.80;;;;;;;11.34;100.00;101623.81;4990704;28;20026;-65
2021/11/11 08:17:53;;;;;;;24.70;5.78;;;;;;;11.31;100.00;101627.16;5002357;28;21033;-64
2021/11/11 08:20:19;;;;;;;22.85;6.93;;;;;;;11.44;100.00;101628.78;4984498;28;20173;-65
2021/11/11 08:22:47;;;;;;;23.58;5.93;;;;;;;11.41;100.00;101624.81;4980833;28;20030;-64
2021/11/11 08:25:13;;;;;;;23.75;6.60;;;;;;;11.39;100.00;101618.19;4990429;28;20038;-64
2021/11/11 08:27:40;;;;;;;29.52;8.00;;;;;;;11.52;100.00;101615.16;4979486;28;20034;-64
2021/11/11 08:30:09;;;;;;;22.65;7.18;;;;;;;11.51;100.00;101608.22;4981459;28;20042;-63
2021/11/11 08:32:35;;;;;;;22.95;6.13;;;;;;;11.38;100.00;101613.94;4986041;28;20034;-65
2021/11/11 08:35:00;;;;;;;23.20;6.00;;;;;;;11.43;100.00;101609.09;4976804;28;20069;-63
2021/11/11 08:37:27;;;;;;;21.25;6.25;;;;;;;11.41;100.00;101622.13;4977491;28;20038;-63
2021/11/11 08:39:53;;;;;;;26.15;6.13;;;;;;;11.51;100.00;101618.19;4981866;28;20042;-65
2021/11/11 08:42:19;;;;;;;25.48;8.15;;;;;;;11.53;100.00;101624.84;4972275;28;20030;-64
2021/11/11 08:44:48;;;;;;;22.17;6.63;;;;;;;11.53;100.00;101615.97;4960487;28;20118;-64
2021/11/11 08:47:19;;;;;;;29.50;7.72;;;;;;;11.54;100.00;101614.81;4984054;28;20054;-65
2021/11/11 08:49:51;;;;;;;27.20;8.38;;;;;;;11.55;100.00;101605.63;4981059;28;20035;-65
2021/11/11 08:52:17;;;;;;;18.00;6.20;;;;;;;11.52;100.00;101608.97;4978897;28;20054;-65
2021/11/11 08:54:43;;;;;;;24.35;7.60;;;;;;;11.56;100.00;101615.28;4983730;28;20030;-66
2021/11/11 08:57:09;;;;;;;22.25;5.97;;;;;;;11.54;100.00;101614.81;4971030;28;20129;-66
2021/11/11 08:59:35;;;;;;;19.42;6.30;;;;;;;11.59;100.00;101623.47;4983294;28;20058;-65
2021/11/11 09:02:01;;;;;;;23.45;7.07;;;;;;;11.55;100.00;101614.50;4978482;28;20061;-65
2021/11/11 09:04:27;;;;;;;24.85;7.65;;;;;;;11.62;100.00;101609.31;4976943;28;20386;-65
2021/11/11 09:06:52;;;;;;;25.55;6.85;;;;;;;11.57;100.00;101614.97;4976026;28;20072;-65
2021/11/11 09:09:20;;;;;;;21.27;6.88;;;;;;;11.59;100.00;101617.31;4986648;28;20484;-65
2021/11/11 09:11:46;;;;;;;28.70;8.35;;;;;;;11.65;100.00;101615.97;4985871;28;20034;-63
2021/11/11 09:14:12;;;;;;;22.90;7.60;;;;;;;11.75;100.00;101613.59;4988917;28;20045;-64
2021/11/11 09:16:38;;;;;;;22.77;7.18;;;;;;;11.78;100.00;101610.25;4990242;28;20042;-64
2021/11/11 09:19:08;;;;;;;31.25;7.82;;;;;;;11.77;100.00;101613.25;4989394;28;20038;-65
2021/11/11 09:21:35;;;;;;;26.90;7.20;;;;;;;11.76;100.00;101617.09;4989914;28;20063;-66
2021/11/11 09:24:01;;;;;;;24.25;7.90;;;;;;;11.75;100.00;101607.41;4992166;28;20026;-65
2021/11/11 09:26:27;;;;;;;27.48;6.93;;;;;;;11.75;100.00;101615.50;4992960;28;20041;-65
2021/11/11 09:28:55;;;;;;;19.52;6.63;;;;;;;11.71;100.00;101615.41;4984186;28;20739;-66
2021/11/11 09:31:23;;;;;;;20.92;6.65;;;;;;;11.74;100.00;101609.34;4987767;28;20038;-66
2021/11/11 09:33:48;;;;;;;22.67;7.50;;;;;;;11.85;100.00;101609.66;4989248;28;20088;-66
2021/11/11 09:36:16;;;;;;;21.05;6.90;;;;;;;11.81;100.00;101611.47;4986214;28;20582;-66
2021/11/11 09:38:43;;;;;;;27.40;9.05;;;;;;;11.75;100.00;101610.13;4965376;28;20041;-64
2021/11/11 09:41:13;;;;;;;31.67;8.35;;;;;;;11.79;100.00;101606.41;4985547;28;20146;-65
2021/11/11 09:43:40;;;;;;;26.80;7.38;;;;;;;11.71;100.00;101610.00;4984603;28;20030;-66
2021/11/11 09:46:09;;;;;;;22.10;6.93;;;;;;;11.78;100.00;101610.25;4985624;28;20718;-65
2021/11/11 09:48:35;;;;;;;24.95;7.20;;;;;;;11.86;100.00;101611.25;4968991;28;20128;-65
2021/11/11 09:51:04;;;;;;;19.83;7.03;;;;;;;11.93;100.00;101606.06;4986484;28;20038;-65
2021/11/11 09:53:30;;;;;;;28.88;8.88;;;;;;;11.89;100.00;101607.88;4974537;28;20481;-65
2021/11/11 09:58:41;;;;;;;30.63;8.52;;;;;;;11.90;100.00;101600.56;4973849;28;20035;-65
2021/11/11 10:01:20;;;;;;;28.40;7.50;;;;;;;11.84;100.00;101599.22;4977159;28;20085;-65
2021/11/11 10:03:48;;;;;;;24.67;6.72;;;;;;;11.84;100.00;101608.09;4979984;28;20030;-65
2021/11/11 10:06:16;;;;;;;17.33;5.90;;;;;;;11.91;100.00;101602.13;4979673;28;20035;-65
2021/11/11 10:08:47;;;;;;;19.00;6.88;;;;;;;11.89;100.00;101609.78;4987600;28;20038;-65
2021/11/11 10:11:24;;;;;;;20.10;6.88;;;;;;;11.99;100.00;101603.91;5000192;28;20042;-66
2021/11/11 10:13:59;;;;;;;16.20;7.10;;;;;;;11.94;100.00;101613.03;4988582;28;20038;-66
2021/11/11 10:16:25;;;;;;;25.75;7.80;;;;;;;12.03;100.00;101610.19;4989024;28;20042;-66
2021/11/11 10:18:59;;;;;;;17.90;7.88;;;;;;;11.98;100.00;101616.63;4976838;28;20038;-64
2021/11/11 10:21:43;;;;;;;20.98;6.97;;;;;;;12.01;100.00;101613.25;4968696;28;20438;-64
2021/11/11 10:27:33;;;;;;;15.30;7.13;;;;;;;12.00;100.00;101610.91;4994126;28;20046;-65
2021/11/11 10:30:02;;;;;;;21.90;8.35;;;;;;;12.02;100.00;101608.66;4987508;28;20042;-65
2021/11/11 10:32:48;;;;;;;26.10;8.95;;;;;;;11.98;100.00;101608.50;4990415;28;20108;-65
2021/11/11 10:35:24;;;;;;;25.77;7.20;;;;;;;12.06;100.00;101604.13;4980995;28;20038;-65
2021/11/11 10:37:54;;;;;;;28.52;8.70;;;;;;;12.11;100.00;101618.19;4982576;28;20035;-65
2021/11/11 10:40:24;;;;;;;28.05;7.80;;;;;;;12.16;100.00;101614.44;4980186;28;20468;-66
2021/11/11 10:42:54;;;;;;;18.83;6.18;;;;;;;12.17;100.00;101616.81;4986565;28;20080;-66
2021/11/11 10:45:26;;;;;;;18.30;6.10;;;;;;;12.18;100.00;101609.50;4986745;28;20072;-66
2021/11/11 10:47:55;;;;;;;19.70;6.18;;;;;;;12.20;100.00;101605.31;4980201;28;20038;-65
2021/11/11 10:50:27;;;;;;;17.45;6.03;;;;;;;12.15;100.00;101602.09;4982176;23;20038;-64
2021/11/11 10:53:01;;;;;;;19.00;6.78;;;;;;;12.22;100.00;101592.28;4985300;28;20030;-64
2021/11/11 10:55:35;;;;;;;15.82;5.72;;;;;;;12.26;100.00;101597.75;4982082;28;20042;-64
2021/11/11 10:58:07;;;;;;;19.02;5.93;;;;;;;12.20;100.00;101594.53;4981089;28;20042;-64
2021/11/11 11:01:10;;;;;;;21.02;6.10;;;;;;;12.29;100.00;101589.00;4997175;28;20140;-63
2021/11/11 11:03:44;;;;;;;16.02;5.75;;;;;;;12.29;100.00;101591.69;5003172;28;20026;-63
2021/11/11 11:06:12;;;;;;;24.33;6.47;;;;;;;12.30;100.00;101580.53;4996660;28;20038;-64
2021/11/11 11:08:41;;;;;;;15.90;5.97;;;;;;;12.34;100.00;101588.75;5016862;28;20052;-64
2021/11/11 11:11:18;;;;;;;21.02;6.10;;;;;;;12.38;100.00;101584.22;5006070;28;20038;-63
2021/11/11 11:14:10;;;;;;;13.80;5.55;;;;;;;12.25;100.00;101586.16;5007786;28;20537;-63
2021/11/11 11:16:36;;;;;;;15.98;5.93;;;;;;;12.29;100.00;101584.34;5004362;28;20112;-63
2021/11/11 11:19:06;;;;;;;16.38;6.47;;;;;;;12.43;100.00;101592.06;5007326;28;20113;-63
2021/11/11 11:21:53;;;;;;;17.00;6.25;;;;;;;12.38;100.00;101585.03;5017348;28;20390;-63
2021/11/11 11:24:21;;;;;;;15.63;5.95;;;;;;;12.32;100.00;101585.59;5007783;28;20278;-63
2021/11/11 11:26:49;;;;;;;18.70;4.55;;;;;;;12.31;100.00;101582.09;5004221;28;20049;-61
2021/11/11 11:31:50;;;;;;;17.48;5.45;;;;;;;12.32;100.00;101574.78;4996094;28;20084;-64
2021/11/11 11:34:19;;;;;;;11.43;5.55;;;;;;;12.28;100.00;101574.69;4995494;28;20084;-64
2021/11/11 11:36:49;;;;;;;18.60;6.82;;;;;;;12.33;100.00;101587.94;5006229;28;20034;-64
2021/11/11 11:39:32;;;;;;;17.57;6.47;;;;;;;12.34;100.00;101584.13;4998891;28;20365;-64
2021/11/11 11:42:05;;;;;;;17.73;6.82;;;;;;;12.33;100.00;101587.19;5000282;28;20710;-63
2021/11/11 11:44:39;;;;;;;17.13;6.28;;;;;;;12.36;100.00;101581.88;5009673;28;20042;-64